sensor_id;sensor_type;location;lat;lon;timestamp;pressure;altitude;pressure_sealevel;temperature;humidity
6198;BME280;3132;42.622;23.328;2023-02-21T00:00:09;93118.38;;;4.34;73.11
6198;BME280;3132;42.622;23.328;2023-02-21T00:02:53;93134.47;;;4.24;73.95
6198;BME280;3132;42.622;23.328;2023-02-21T00:05:37;93129.19;;;4.19;74.02
6198;BME280;3132;42.622;23.328;2023-02-21T00:08:21;93150.50;;;4.38;73.37
6198;BME280;3132;42.622;23.328;2023-02-21T00:11:05;93142.28;;;4.41;72.83
6198;BME280;3132;42.622;23.328;2023-02-21T00:13:48;93149.94;;;4.36;73.73
6198;BME280;3132;42.622;23.328;2023-02-21T00:16:32;93135.56;;;4.28;74.01
6198;BME280;3132;42.622;23.328;2023-02-21T00:19:16;93149.28;;;4.40;73.83
6198;BME280;3132;42.622;23.328;2023-02-21T00:22:00;93136.44;;;4.45;73.26
6198;BME280;3132;42.622;23.328;2023-02-21T00:24:44;93132.00;;;4.29;73.51
6198;BME280;3132;42.622;23.328;2023-02-21T00:27:28;93128.84;;;4.27;73.61
6198;BME280;3132;42.622;23.328;2023-02-21T00:30:14;93114.53;;;4.36;74.13
6198;BME280;3132;42.622;23.328;2023-02-21T00:32:58;93139.63;;;4.24;74.52
6198;BME280;3132;42.622;23.328;2023-02-21T00:35:42;93109.06;;;4.21;74.44
6198;BME280;3132;42.622;23.328;2023-02-21T00:38:26;93108.28;;;4.32;74.16
6198;BME280;3132;42.622;23.328;2023-02-21T00:41:11;93121.66;;;4.29;74.75
6198;BME280;3132;42.622;23.328;2023-02-21T00:43:55;93114.41;;;4.54;73.44
6198;BME280;3132;42.622;23.328;2023-02-21T00:46:39;93115.59;;;4.63;72.22
6198;BME280;3132;42.622;23.328;2023-02-21T00:49:23;93120.28;;;4.38;73.67
6198;BME280;3132;42.622;23.328;2023-02-21T00:52:07;93099.09;;;4.25;73.94
6198;BME280;3132;42.622;23.328;2023-02-21T00:54:51;93102.78;;;4.29;73.41
6198;BME280;3132;42.622;23.328;2023-02-21T00:57:34;93082.22;;;4.22;74.16
6198;BME280;3132;42.622;23.328;2023-02-21T01:00:21;93087.53;;;4.55;73.05
6198;BME280;3132;42.622;23.328;2023-02-21T01:03:06;93100.53;;;4.32;74.03
6198;BME280;3132;42.622;23.328;2023-02-21T01:05:50;93077.53;;;4.47;73.69
6198;BME280;3132;42.622;23.328;2023-02-21T01:08:35;93077.75;;;4.18;74.99
6198;BME280;3132;42.622;23.328;2023-02-21T01:11:21;93060.72;;;4.33;74.47
6198;BME280;3132;42.622;23.328;2023-02-21T01:14:06;93068.75;;;4.48;73.68
6198;BME280;3132;42.622;23.328;2023-02-21T01:16:50;93060.31;;;4.53;73.07
6198;BME280;3132;42.622;23.328;2023-02-21T01:19:34;93052.72;;;4.46;73.95
6198;BME280;3132;42.622;23.328;2023-02-21T01:22:18;93040.63;;;4.35;74.49
6198;BME280;3132;42.622;23.328;2023-02-21T01:25:04;93054.63;;;4.39;75.02
6198;BME280;3132;42.622;23.328;2023-02-21T01:27:48;93051.06;;;4.40;74.55
6198;BME280;3132;42.622;23.328;2023-02-21T01:30:32;93045.31;;;4.38;74.59
6198;BME280;3132;42.622;23.328;2023-02-21T01:33:16;93048.72;;;4.39;74.96
6198;BME280;3132;42.622;23.328;2023-02-21T01:36:00;93059.31;;;4.14;76.01
6198;BME280;3132;42.622;23.328;2023-02-21T01:38:44;93035.00;;;4.27;75.33
6198;BME280;3132;42.622;23.328;2023-02-21T01:41:28;93035.22;;;4.37;74.83
6198;BME280;3132;42.622;23.328;2023-02-21T01:44:42;92993.03;;;3.80;76.26
6198;BME280;3132;42.622;23.328;2023-02-21T01:47:28;93051.50;;;4.37;75.35
6198;BME280;3132;42.622;23.328;2023-02-21T01:50:27;93034.16;;;4.10;75.73
6198;BME280;3132;42.622;23.328;2023-02-21T01:53:18;93032.03;;;4.18;75.83
6198;BME280;3132;42.622;23.328;2023-02-21T01:56:05;93042.84;;;3.92;76.93
6198;BME280;3132;42.622;23.328;2023-02-21T01:58:52;93026.69;;;3.97;76.59
6198;BME280;3132;42.622;23.328;2023-02-21T02:01:42;92996.63;;;3.79;76.67
6198;BME280;3132;42.622;23.328;2023-02-21T02:04:30;93032.38;;;4.10;76.27
6198;BME280;3132;42.622;23.328;2023-02-21T02:07:15;93029.78;;;4.10;76.95
6198;BME280;3132;42.622;23.328;2023-02-21T02:09:58;93006.19;;;4.18;75.09
6198;BME280;3132;42.622;23.328;2023-02-21T02:24:33;92989.56;;;4.14;76.79
6198;BME280;3132;42.622;23.328;2023-02-21T02:32:23;93004.47;;;3.84;78.14
6198;BME280;3132;42.622;23.328;2023-02-21T02:35:04;92987.38;;;3.95;77.87
6198;BME280;3132;42.622;23.328;2023-02-21T02:37:54;92999.25;;;4.07;77.64
6198;BME280;3132;42.622;23.328;2023-02-21T02:43:22;92993.97;;;4.02;77.88
6198;BME280;3132;42.622;23.328;2023-02-21T02:45:54;93002.94;;;4.11;77.00
6198;BME280;3132;42.622;23.328;2023-02-21T02:48:39;92991.28;;;3.97;77.48
6198;BME280;3132;42.622;23.328;2023-02-21T02:51:10;93000.41;;;3.88;77.88
6198;BME280;3132;42.622;23.328;2023-02-21T02:53:37;92986.06;;;3.81;77.85
6198;BME280;3132;42.622;23.328;2023-02-21T02:56:05;93005.66;;;4.05;76.92
6198;BME280;3132;42.622;23.328;2023-02-21T02:58:34;93000.91;;;4.13;76.36
6198;BME280;3132;42.622;23.328;2023-02-21T03:06:49;92991.19;;;3.92;76.68
6198;BME280;3132;42.622;23.328;2023-02-21T03:09:36;92995.84;;;3.79;77.43
6198;BME280;3132;42.622;23.328;2023-02-21T03:14:58;93009.84;;;3.94;76.62
6198;BME280;3132;42.622;23.328;2023-02-21T03:17:27;93007.16;;;3.89;77.31
6198;BME280;3132;42.622;23.328;2023-02-21T03:19:54;92995.13;;;3.95;75.94
6198;BME280;3132;42.622;23.328;2023-02-21T03:22:24;92995.31;;;4.05;75.75
6198;BME280;3132;42.622;23.328;2023-02-21T03:24:51;92992.31;;;3.96;77.09
6198;BME280;3132;42.622;23.328;2023-02-21T03:27:19;92988.41;;;3.94;76.19
6198;BME280;3132;42.622;23.328;2023-02-21T03:29:47;92999.31;;;4.24;75.07
6198;BME280;3132;42.622;23.328;2023-02-21T03:32:34;92992.97;;;4.03;75.48
6198;BME280;3132;42.622;23.328;2023-02-21T03:35:00;92993.28;;;4.07;75.30
6198;BME280;3132;42.622;23.328;2023-02-21T03:37:34;92966.06;;;4.16;75.10
6198;BME280;3132;42.622;23.328;2023-02-21T03:40:02;92955.13;;;4.09;75.70
6198;BME280;3132;42.622;23.328;2023-02-21T03:42:28;92979.09;;;4.21;75.16
6198;BME280;3132;42.622;23.328;2023-02-21T03:44:53;92966.75;;;4.23;75.08
6198;BME280;3132;42.622;23.328;2023-02-21T03:47:19;92964.38;;;4.21;74.85
6198;BME280;3132;42.622;23.328;2023-02-21T03:49:44;92980.81;;;4.15;75.36
6198;BME280;3132;42.622;23.328;2023-02-21T03:52:11;92984.94;;;4.16;75.51
6198;BME280;3132;42.622;23.328;2023-02-21T03:54:37;92999.25;;;4.07;75.12
6198;BME280;3132;42.622;23.328;2023-02-21T03:57:03;93001.16;;;4.12;75.71
6198;BME280;3132;42.622;23.328;2023-02-21T03:59:29;92995.97;;;4.12;75.48
6198;BME280;3132;42.622;23.328;2023-02-21T04:01:54;93002.75;;;4.01;75.88
6198;BME280;3132;42.622;23.328;2023-02-21T04:04:19;92993.41;;;4.00;76.48
6198;BME280;3132;42.622;23.328;2023-02-21T04:06:45;92986.13;;;3.97;76.25
6198;BME280;3132;42.622;23.328;2023-02-21T04:09:10;92996.47;;;3.97;75.72
6198;BME280;3132;42.622;23.328;2023-02-21T04:11:36;93001.78;;;4.19;75.08
6198;BME280;3132;42.622;23.328;2023-02-21T04:14:01;93000.50;;;4.33;74.48
6198;BME280;3132;42.622;23.328;2023-02-21T04:16:28;92987.34;;;4.06;75.78
6198;BME280;3132;42.622;23.328;2023-02-21T04:18:54;93011.00;;;3.75;76.98
6198;BME280;3132;42.622;23.328;2023-02-21T04:21:19;93019.53;;;3.87;76.80
6198;BME280;3132;42.622;23.328;2023-02-21T04:23:45;93007.50;;;4.21;75.15
6198;BME280;3132;42.622;23.328;2023-02-21T04:26:10;93026.91;;;3.95;76.05
6198;BME280;3132;42.622;23.328;2023-02-21T04:28:35;93043.09;;;3.79;77.48
6198;BME280;3132;42.622;23.328;2023-02-21T04:31:01;93029.97;;;3.81;76.98
6198;BME280;3132;42.622;23.328;2023-02-21T04:33:26;93038.34;;;3.99;76.40
6198;BME280;3132;42.622;23.328;2023-02-21T04:35:51;93035.78;;;3.88;77.47
6198;BME280;3132;42.622;23.328;2023-02-21T04:38:17;93031.97;;;3.79;76.63
6198;BME280;3132;42.622;23.328;2023-02-21T04:40:43;93009.88;;;3.60;77.71
6198;BME280;3132;42.622;23.328;2023-02-21T04:43:08;93019.53;;;3.76;76.68
6198;BME280;3132;42.622;23.328;2023-02-21T04:45:33;93023.03;;;3.70;77.89
6198;BME280;3132;42.622;23.328;2023-02-21T04:47:59;93032.25;;;3.66;77.05
6198;BME280;3132;42.622;23.328;2023-02-21T04:50:24;93029.28;;;3.74;79.38
6198;BME280;3132;42.622;23.328;2023-02-21T04:52:49;93024.13;;;3.74;77.15
6198;BME280;3132;42.622;23.328;2023-02-21T04:55:15;93031.22;;;3.55;78.21
6198;BME280;3132;42.622;23.328;2023-02-21T04:57:40;93025.94;;;3.62;78.48
6198;BME280;3132;42.622;23.328;2023-02-21T05:00:06;93045.03;;;3.61;78.40
6198;BME280;3132;42.622;23.328;2023-02-21T05:02:32;93005.75;;;3.59;78.14
6198;BME280;3132;42.622;23.328;2023-02-21T05:04:58;93016.75;;;3.43;78.99
6198;BME280;3132;42.622;23.328;2023-02-21T05:07:23;92994.88;;;3.45;79.00
6198;BME280;3132;42.622;23.328;2023-02-21T05:09:50;92998.00;;;3.47;79.32
6198;BME280;3132;42.622;23.328;2023-02-21T05:12:15;92988.81;;;3.51;78.56
6198;BME280;3132;42.622;23.328;2023-02-21T05:14:41;92980.50;;;3.49;78.45
6198;BME280;3132;42.622;23.328;2023-02-21T05:17:07;92974.13;;;3.91;77.11
6198;BME280;3132;42.622;23.328;2023-02-21T05:19:33;92967.91;;;5.10;71.79
6198;BME280;3132;42.622;23.328;2023-02-21T05:22:01;92985.38;;;5.90;66.51
6198;BME280;3132;42.622;23.328;2023-02-21T05:24:28;92985.47;;;4.91;70.52
6198;BME280;3132;42.622;23.328;2023-02-21T05:26:54;92972.53;;;5.08;69.92
6198;BME280;3132;42.622;23.328;2023-02-21T05:29:20;92983.22;;;4.94;70.73
6198;BME280;3132;42.622;23.328;2023-02-21T05:31:46;92974.09;;;4.59;72.67
6198;BME280;3132;42.622;23.328;2023-02-21T05:34:12;92977.44;;;4.59;73.76
6198;BME280;3132;42.622;23.328;2023-02-21T05:36:37;92993.63;;;4.83;71.58
6198;BME280;3132;42.622;23.328;2023-02-21T05:39:03;92975.91;;;4.75;71.72
6198;BME280;3132;42.622;23.328;2023-02-21T05:41:29;92974.44;;;4.34;73.57
6198;BME280;3132;42.622;23.328;2023-02-21T05:43:55;92988.16;;;4.51;73.39
6198;BME280;3132;42.622;23.328;2023-02-21T05:46:28;92997.88;;;4.44;74.15
6198;BME280;3132;42.622;23.328;2023-02-21T05:48:54;92984.38;;;4.70;72.29
6198;BME280;3132;42.622;23.328;2023-02-21T05:51:21;93006.34;;;4.28;73.60
6198;BME280;3132;42.622;23.328;2023-02-21T05:53:47;92987.31;;;4.18;74.13
6198;BME280;3132;42.622;23.328;2023-02-21T05:56:12;92984.72;;;4.18;73.69
6198;BME280;3132;42.622;23.328;2023-02-21T05:58:38;93023.72;;;4.44;73.81
6198;BME280;3132;42.622;23.328;2023-02-21T06:01:04;92976.50;;;4.49;72.51
6198;BME280;3132;42.622;23.328;2023-02-21T06:03:29;93042.31;;;4.58;73.18
6198;BME280;3132;42.622;23.328;2023-02-21T06:05:55;93004.53;;;4.68;71.89
6198;BME280;3132;42.622;23.328;2023-02-21T06:08:20;93018.69;;;4.82;71.96
6198;BME280;3132;42.622;23.328;2023-02-21T06:10:45;93038.78;;;4.47;74.05
6198;BME280;3132;42.622;23.328;2023-02-21T06:13:11;93007.28;;;4.50;74.02
6198;BME280;3132;42.622;23.328;2023-02-21T06:15:36;93046.75;;;4.74;73.42
6198;BME280;3132;42.622;23.328;2023-02-21T06:18:02;93001.63;;;4.81;71.66
6198;BME280;3132;42.622;23.328;2023-02-21T06:20:27;93021.63;;;5.19;70.70
6198;BME280;3132;42.622;23.328;2023-02-21T06:22:52;93034.28;;;5.32;71.23
6198;BME280;3132;42.622;23.328;2023-02-21T06:25:18;93032.22;;;5.51;69.49
6198;BME280;3132;42.622;23.328;2023-02-21T06:27:43;93015.34;;;5.32;70.01
6198;BME280;3132;42.622;23.328;2023-02-21T06:30:09;93012.13;;;5.25;70.37
6198;BME280;3132;42.622;23.328;2023-02-21T06:32:35;93065.16;;;5.22;70.93
6198;BME280;3132;42.622;23.328;2023-02-21T06:35:01;93023.84;;;5.27;70.35
6198;BME280;3132;42.622;23.328;2023-02-21T06:37:26;93050.22;;;5.62;69.94
6198;BME280;3132;42.622;23.328;2023-02-21T06:39:52;93053.22;;;5.71;69.23
6198;BME280;3132;42.622;23.328;2023-02-21T06:42:18;93047.88;;;5.94;68.63
6198;BME280;3132;42.622;23.328;2023-02-21T06:44:47;93039.38;;;5.98;67.42
6198;BME280;3132;42.622;23.328;2023-02-21T06:47:13;93048.94;;;5.98;68.24
6198;BME280;3132;42.622;23.328;2023-02-21T06:49:38;93046.13;;;5.99;67.84
6198;BME280;3132;42.622;23.328;2023-02-21T06:52:05;93041.00;;;6.04;67.69
6198;BME280;3132;42.622;23.328;2023-02-21T06:54:31;93048.47;;;6.01;68.62
6198;BME280;3132;42.622;23.328;2023-02-21T06:56:56;93021.16;;;6.15;66.98
6198;BME280;3132;42.622;23.328;2023-02-21T06:59:22;93009.19;;;6.09;68.07
6198;BME280;3132;42.622;23.328;2023-02-21T07:01:47;93020.22;;;6.21;66.84
6198;BME280;3132;42.622;23.328;2023-02-21T07:04:12;93039.22;;;6.26;67.42
6198;BME280;3132;42.622;23.328;2023-02-21T07:06:38;93046.72;;;6.49;66.23
6198;BME280;3132;42.622;23.328;2023-02-21T07:09:03;93040.50;;;6.72;65.93
6198;BME280;3132;42.622;23.328;2023-02-21T07:11:30;93045.63;;;6.67;66.58
6198;BME280;3132;42.622;23.328;2023-02-21T07:13:56;93053.22;;;7.00;64.32
6198;BME280;3132;42.622;23.328;2023-02-21T07:16:24;93060.66;;;7.18;63.71
6198;BME280;3132;42.622;23.328;2023-02-21T07:18:49;93048.13;;;7.10;63.95
6198;BME280;3132;42.622;23.328;2023-02-21T07:21:15;93051.81;;;7.14;64.15
6198;BME280;3132;42.622;23.328;2023-02-21T07:23:45;93049.28;;;7.24;63.90
6198;BME280;3132;42.622;23.328;2023-02-21T07:26:10;93049.28;;;7.24;63.27
6198;BME280;3132;42.622;23.328;2023-02-21T07:28:36;93046.97;;;7.28;62.86
6198;BME280;3132;42.622;23.328;2023-02-21T07:31:01;93046.88;;;7.49;62.59
6198;BME280;3132;42.622;23.328;2023-02-21T07:33:27;93068.38;;;7.71;61.25
6198;BME280;3132;42.622;23.328;2023-02-21T07:35:52;93063.38;;;7.65;61.04
6198;BME280;3132;42.622;23.328;2023-02-21T07:38:19;93032.94;;;7.60;61.79
6198;BME280;3132;42.622;23.328;2023-02-21T07:40:45;93027.09;;;7.80;61.19
6198;BME280;3132;42.622;23.328;2023-02-21T07:43:10;93052.81;;;7.76;62.29
6198;BME280;3132;42.622;23.328;2023-02-21T07:45:35;93014.84;;;7.75;60.98
6198;BME280;3132;42.622;23.328;2023-02-21T07:48:01;93037.44;;;8.16;59.71
6198;BME280;3132;42.622;23.328;2023-02-21T07:50:26;93007.66;;;7.87;60.00
6198;BME280;3132;42.622;23.328;2023-02-21T07:52:51;93020.72;;;8.02;59.47
6198;BME280;3132;42.622;23.328;2023-02-21T07:55:17;93029.00;;;7.94;59.77
6198;BME280;3132;42.622;23.328;2023-02-21T07:57:42;93033.66;;;7.92;60.35
6198;BME280;3132;42.622;23.328;2023-02-21T08:00:08;93015.13;;;7.79;60.97
6198;BME280;3132;42.622;23.328;2023-02-21T08:02:34;93039.97;;;8.01;59.69
6198;BME280;3132;42.622;23.328;2023-02-21T08:04:59;93018.84;;;7.93;60.36
6198;BME280;3132;42.622;23.328;2023-02-21T08:07:24;93015.28;;;8.04;60.37
6198;BME280;3132;42.622;23.328;2023-02-21T08:09:50;93018.06;;;7.92;60.12
6198;BME280;3132;42.622;23.328;2023-02-21T08:12:15;93020.69;;;7.97;60.13
6198;BME280;3132;42.622;23.328;2023-02-21T08:14:41;93032.38;;;8.00;60.46
6198;BME280;3132;42.622;23.328;2023-02-21T08:17:06;93022.00;;;7.95;60.51
6198;BME280;3132;42.622;23.328;2023-02-21T08:19:32;93034.38;;;8.25;59.93
6198;BME280;3132;42.622;23.328;2023-02-21T08:21:57;93024.53;;;8.32;60.42
6198;BME280;3132;42.622;23.328;2023-02-21T08:24:22;93032.41;;;8.52;59.61
6198;BME280;3132;42.622;23.328;2023-02-21T08:26:48;93026.19;;;8.63;58.90
6198;BME280;3132;42.622;23.328;2023-02-21T08:29:14;93015.00;;;8.67;58.22
6198;BME280;3132;42.622;23.328;2023-02-21T08:31:42;93033.28;;;8.87;57.94
6198;BME280;3132;42.622;23.328;2023-02-21T08:34:09;93018.44;;;8.78;57.90
6198;BME280;3132;42.622;23.328;2023-02-21T08:36:38;93009.03;;;8.77;57.77
6198;BME280;3132;42.622;23.328;2023-02-21T08:39:05;93017.13;;;8.90;57.50
6198;BME280;3132;42.622;23.328;2023-02-21T08:41:42;93016.66;;;8.93;57.68
6198;BME280;3132;42.622;23.328;2023-02-21T08:44:12;93005.44;;;8.88;58.45
6198;BME280;3132;42.622;23.328;2023-02-21T08:46:40;93015.38;;;9.16;57.19
6198;BME280;3132;42.622;23.328;2023-02-21T08:49:06;93027.09;;;9.23;57.09
6198;BME280;3132;42.622;23.328;2023-02-21T08:51:32;93026.06;;;9.19;56.85
6198;BME280;3132;42.622;23.328;2023-02-21T08:53:58;93021.13;;;9.23;58.41
6198;BME280;3132;42.622;23.328;2023-02-21T08:56:25;93032.03;;;9.65;56.39
6198;BME280;3132;42.622;23.328;2023-02-21T08:58:51;93023.41;;;9.74;54.44
6198;BME280;3132;42.622;23.328;2023-02-21T09:01:19;93000.25;;;9.53;55.72
6198;BME280;3132;42.622;23.328;2023-02-21T09:03:44;93002.31;;;9.61;55.06
6198;BME280;3132;42.622;23.328;2023-02-21T09:06:10;93016.69;;;9.58;54.50
6198;BME280;3132;42.622;23.328;2023-02-21T09:08:35;93016.69;;;9.53;55.17
6198;BME280;3132;42.622;23.328;2023-02-21T09:11:05;92977.31;;;9.25;56.29
6198;BME280;3132;42.622;23.328;2023-02-21T09:13:31;93016.16;;;9.56;54.99
6198;BME280;3132;42.622;23.328;2023-02-21T09:15:58;93015.63;;;9.49;54.97
6198;BME280;3132;42.622;23.328;2023-02-21T09:18:24;93021.63;;;9.55;55.50
6198;BME280;3132;42.622;23.328;2023-02-21T09:20:50;93014.31;;;9.62;55.22
6198;BME280;3132;42.622;23.328;2023-02-21T09:23:18;93004.16;;;9.75;54.85
6198;BME280;3132;42.622;23.328;2023-02-21T09:25:44;93002.59;;;9.64;55.37
6198;BME280;3132;42.622;23.328;2023-02-21T09:28:10;93003.66;;;9.58;56.35
6198;BME280;3132;42.622;23.328;2023-02-21T09:30:35;93012.19;;;9.94;54.28
6198;BME280;3132;42.622;23.328;2023-02-21T09:33:01;92993.94;;;9.79;55.42
6198;BME280;3132;42.622;23.328;2023-02-21T09:35:26;92971.53;;;9.83;53.86
6198;BME280;3132;42.622;23.328;2023-02-21T09:37:55;92987.38;;;10.02;53.61
6198;BME280;3132;42.622;23.328;2023-02-21T09:42:54;92991.81;;;10.06;53.84
6198;BME280;3132;42.622;23.328;2023-02-21T09:45:21;92965.19;;;10.04;53.84
6198;BME280;3132;42.622;23.328;2023-02-21T09:47:51;92999.97;;;10.63;52.44
6198;BME280;3132;42.622;23.328;2023-02-21T09:50:23;92990.84;;;10.61;52.73
6198;BME280;3132;42.622;23.328;2023-02-21T09:52:51;92990.47;;;10.82;52.27
6198;BME280;3132;42.622;23.328;2023-02-21T09:55:30;92997.63;;;11.05;51.35
6198;BME280;3132;42.622;23.328;2023-02-21T09:57:58;92990.97;;;10.89;51.19
6198;BME280;3132;42.622;23.328;2023-02-21T10:00:29;92970.56;;;10.91;51.62
6198;BME280;3132;42.622;23.328;2023-02-21T10:03:09;92978.38;;;11.30;49.75
6198;BME280;3132;42.622;23.328;2023-02-21T10:05:47;92979.34;;;11.73;47.85
6198;BME280;3132;42.622;23.328;2023-02-21T10:08:43;92970.22;;;11.70;48.56
6198;BME280;3132;42.622;23.328;2023-02-21T10:16:50;92958.56;;;12.10;45.36
6198;BME280;3132;42.622;23.328;2023-02-21T10:19:27;92953.38;;;12.28;46.07
6198;BME280;3132;42.622;23.328;2023-02-21T10:21:56;92955.22;;;12.70;43.81
6198;BME280;3132;42.622;23.328;2023-02-21T10:24:26;92957.34;;;12.68;43.76
6198;BME280;3132;42.622;23.328;2023-02-21T10:29:36;92928.88;;;13.17;40.30
6198;BME280;3132;42.622;23.328;2023-02-21T10:32:04;92944.69;;;13.44;37.76
6198;BME280;3132;42.622;23.328;2023-02-21T10:34:31;92920.50;;;13.47;37.75
6198;BME280;3132;42.622;23.328;2023-02-21T10:37:24;92929.47;;;13.46;39.18
6198;BME280;3132;42.622;23.328;2023-02-21T10:39:54;92928.03;;;13.67;38.30
6198;BME280;3132;42.622;23.328;2023-02-21T10:42:39;92911.47;;;13.99;35.79
6198;BME280;3132;42.622;23.328;2023-02-21T10:45:08;92917.00;;;14.52;31.24
6198;BME280;3132;42.622;23.328;2023-02-21T10:47:49;92930.06;;;14.92;30.33
6198;BME280;3132;42.622;23.328;2023-02-21T10:53:07;92902.50;;;14.90;29.65
6198;BME280;3132;42.622;23.328;2023-02-21T10:55:33;92922.22;;;15.01;30.35
6198;BME280;3132;42.622;23.328;2023-02-21T10:58:09;92869.03;;;14.82;29.72
6198;BME280;3132;42.622;23.328;2023-02-21T11:00:42;92899.03;;;15.03;29.26
6198;BME280;3132;42.622;23.328;2023-02-21T11:03:20;92896.22;;;14.99;29.51
6198;BME280;3132;42.622;23.328;2023-02-21T11:05:51;92893.56;;;15.13;29.37
6198;BME280;3132;42.622;23.328;2023-02-21T11:08:39;92842.16;;;14.85;29.08
6198;BME280;3132;42.622;23.328;2023-02-21T11:11:05;92878.63;;;15.22;28.64
6198;BME280;3132;42.622;23.328;2023-02-21T11:13:32;92871.66;;;15.26;29.20
6198;BME280;3132;42.622;23.328;2023-02-21T11:16:18;92875.56;;;15.50;29.04
6198;BME280;3132;42.622;23.328;2023-02-21T11:18:44;92859.81;;;15.37;29.13
6198;BME280;3132;42.622;23.328;2023-02-21T11:21:16;92859.25;;;15.40;29.42
6198;BME280;3132;42.622;23.328;2023-02-21T11:23:52;92867.97;;;15.49;29.39
6198;BME280;3132;42.622;23.328;2023-02-21T11:26:23;92837.94;;;15.28;29.26
6198;BME280;3132;42.622;23.328;2023-02-21T11:28:50;92856.78;;;15.43;29.68
6198;BME280;3132;42.622;23.328;2023-02-21T11:31:29;92841.81;;;15.52;29.46
6198;BME280;3132;42.622;23.328;2023-02-21T11:34:04;92838.78;;;15.67;29.53
6198;BME280;3132;42.622;23.328;2023-02-21T11:36:36;92803.09;;;15.44;29.07
6198;BME280;3132;42.622;23.328;2023-02-21T11:39:06;92829.03;;;15.68;29.30
6198;BME280;3132;42.622;23.328;2023-02-21T11:41:55;92833.88;;;15.83;28.82
6198;BME280;3132;42.622;23.328;2023-02-21T11:44:27;92825.25;;;15.91;28.57
6198;BME280;3132;42.622;23.328;2023-02-21T11:47:12;92817.97;;;15.88;28.68
6198;BME280;3132;42.622;23.328;2023-02-21T11:50:07;92808.69;;;15.99;31.72
6198;BME280;3132;42.622;23.328;2023-02-21T11:53:01;92804.41;;;16.03;32.00
6198;BME280;3132;42.622;23.328;2023-02-21T11:55:28;92811.50;;;16.11;28.78
6198;BME280;3132;42.622;23.328;2023-02-21T12:00:59;92810.72;;;16.02;29.37
6198;BME280;3132;42.622;23.328;2023-02-21T12:06:47;92794.78;;;16.07;29.71
6198;BME280;3132;42.622;23.328;2023-02-21T12:09:27;92793.50;;;15.96;29.42
6198;BME280;3132;42.622;23.328;2023-02-21T12:12:06;92784.34;;;15.85;29.46
6198;BME280;3132;42.622;23.328;2023-02-21T12:17:24;92774.13;;;15.83;29.66
6198;BME280;3132;42.622;23.328;2023-02-21T12:20:27;92775.03;;;15.79;29.81
6198;BME280;3132;42.622;23.328;2023-02-21T12:51:57;92752.47;;;16.03;30.75
6198;BME280;3132;42.622;23.328;2023-02-21T12:57:03;92745.97;;;16.01;30.89
6198;BME280;3132;42.622;23.328;2023-02-21T13:05:39;92742.41;;;16.14;28.73
6198;BME280;3132;42.622;23.328;2023-02-21T13:08:16;92749.41;;;16.19;29.29
6198;BME280;3132;42.622;23.328;2023-02-21T13:10:59;92741.31;;;16.06;28.74
6198;BME280;3132;42.622;23.328;2023-02-21T13:13:32;92735.78;;;16.17;28.48
6198;BME280;3132;42.622;23.328;2023-02-21T13:16:01;92718.25;;;16.12;28.27
6198;BME280;3132;42.622;23.328;2023-02-21T13:18:43;92724.94;;;16.18;28.96
6198;BME280;3132;42.622;23.328;2023-02-21T13:21:29;92727.09;;;16.33;29.06
6198;BME280;3132;42.622;23.328;2023-02-21T13:29:50;92699.97;;;16.24;27.89
6198;BME280;3132;42.622;23.328;2023-02-21T13:32:18;92719.81;;;16.47;27.71
6198;BME280;3132;42.622;23.328;2023-02-21T13:34:58;92712.56;;;16.53;28.32
6198;BME280;3132;42.622;23.328;2023-02-21T13:37:30;92709.09;;;16.44;29.99
6198;BME280;3132;42.622;23.328;2023-02-21T13:40:05;92680.91;;;16.27;29.27
6198;BME280;3132;42.622;23.328;2023-02-21T13:42:37;92713.81;;;16.47;29.61
6198;BME280;3132;42.622;23.328;2023-02-21T13:45:16;92691.28;;;16.32;28.15
6198;BME280;3132;42.622;23.328;2023-02-21T13:48:31;92703.88;;;16.52;28.09
6198;BME280;3132;42.622;23.328;2023-02-21T13:50:58;92689.78;;;16.48;28.50
6198;BME280;3132;42.622;23.328;2023-02-21T13:53:27;92698.59;;;16.52;28.26
6198;BME280;3132;42.622;23.328;2023-02-21T13:58:34;92699.06;;;16.54;28.34
6198;BME280;3132;42.622;23.328;2023-02-21T14:03:55;92699.06;;;16.54;31.17
6198;BME280;3132;42.622;23.328;2023-02-21T14:08:53;92702.78;;;16.45;29.29
6198;BME280;3132;42.622;23.328;2023-02-21T14:11:26;92704.75;;;16.39;28.98
6198;BME280;3132;42.622;23.328;2023-02-21T14:13:55;92680.00;;;16.23;29.50
6198;BME280;3132;42.622;23.328;2023-02-21T14:16:32;92688.19;;;16.30;29.39
6198;BME280;3132;42.622;23.328;2023-02-21T14:19:10;92703.84;;;16.18;29.44
6198;BME280;3132;42.622;23.328;2023-02-21T14:21:38;92697.19;;;16.29;29.37
6198;BME280;3132;42.622;23.328;2023-02-21T14:24:25;92679.53;;;16.21;30.37
6198;BME280;3132;42.622;23.328;2023-02-21T14:37:40;92679.78;;;15.77;30.52
6198;BME280;3132;42.622;23.328;2023-02-21T14:40:40;92679.47;;;15.53;30.55
6198;BME280;3132;42.622;23.328;2023-02-21T15:01:40;92674.56;;;14.60;32.43
6198;BME280;3132;42.622;23.328;2023-02-21T15:07:19;92679.91;;;14.10;35.31
6198;BME280;3132;42.622;23.328;2023-02-21T15:10:16;92684.63;;;14.00;35.98
6198;BME280;3132;42.622;23.328;2023-02-21T15:15:37;92689.78;;;13.69;37.98
6198;BME280;3132;42.622;23.328;2023-02-21T15:18:08;92682.78;;;13.51;39.14
6198;BME280;3132;42.622;23.328;2023-02-21T15:20:39;92680.31;;;13.19;38.87
6198;BME280;3132;42.622;23.328;2023-02-21T15:25:33;92685.91;;;12.99;40.11
6198;BME280;3132;42.622;23.328;2023-02-21T15:28:00;92682.41;;;12.90;40.18
6198;BME280;3132;42.622;23.328;2023-02-21T15:33:27;92683.84;;;12.69;42.00
6198;BME280;3132;42.622;23.328;2023-02-21T15:35:56;92693.00;;;12.53;41.42
6198;BME280;3132;42.622;23.328;2023-02-21T15:38:28;92664.16;;;12.26;42.04
6198;BME280;3132;42.622;23.328;2023-02-21T15:41:02;92687.06;;;12.34;42.75
6198;BME280;3132;42.622;23.328;2023-02-21T15:43:50;92693.53;;;12.23;42.83
6198;BME280;3132;42.622;23.328;2023-02-21T15:46:22;92696.56;;;12.11;42.94
6198;BME280;3132;42.622;23.328;2023-02-21T15:48:49;92691.91;;;12.08;42.52
6198;BME280;3132;42.622;23.328;2023-02-21T15:51:17;92666.28;;;11.73;43.05
6198;BME280;3132;42.622;23.328;2023-02-21T15:53:43;92666.56;;;11.72;43.00
6198;BME280;3132;42.622;23.328;2023-02-21T15:56:28;92659.91;;;11.61;42.91
6198;BME280;3132;42.622;23.328;2023-02-21T15:59:12;92698.38;;;11.55;43.41
6198;BME280;3132;42.622;23.328;2023-02-21T16:01:41;92695.66;;;11.47;43.94
6198;BME280;3132;42.622;23.328;2023-02-21T16:04:22;92682.28;;;11.29;44.28
6198;BME280;3132;42.622;23.328;2023-02-21T16:06:55;92698.13;;;11.14;45.29